Meiringen Airport LSMM

Flugplatz Daten

Name: Meiringen Airport

Ident: LSMM

Lat: 46,74330139

Long: 8,109999657

Platzhöhe: 1895 ft

IataCode:

City:

Metar

2021/10/25 19:50
LSMM 251950Z 10003KT 060V190 CAVOK 03/02 Q1023 RMK BLU

Taf

2021/10/25 17:00
TAF LSMM 251625Z 2517/2623 11006KT CAVOK
BECMG 2518/2522 9999 SCT060
BECMG 2519/2521 4500 MIFG NSC PROB30
TEMPO 2521/2602 2500 BCFG PROB40
TEMPO 2604/2612 SHRA
BECMG 2604/2606 9999 BKN040
Gewünschte Webcam nicht vorhanden? Dann fügen Sie eine hinzu. Sie wird dann so schnell wie möglich freigeschaltet
Url: Title: